sensor_id;sensor_type;location;lat;lon;timestamp;temperature;humidity
28773;DHT22;15925;51.222;5.678;2024-01-25T00:01:14;9.00;99.90
28773;DHT22;15925;51.222;5.678;2024-01-25T00:03:40;8.90;99.90
28773;DHT22;15925;51.222;5.678;2024-01-25T00:06:06;8.90;99.90
28773;DHT22;15925;51.222;5.678;2024-01-25T00:08:33;8.90;99.90
28773;DHT22;15925;51.222;5.678;2024-01-25T00:10:59;8.90;99.90
28773;DHT22;15925;51.222;5.678;2024-01-25T00:13:25;9.00;99.90
28773;DHT22;15925;51.222;5.678;2024-01-25T00:15:51;9.00;99.90
28773;DHT22;15925;51.222;5.678;2024-01-25T00:18:17;8.90;99.90
28773;DHT22;15925;51.222;5.678;2024-01-25T00:20:43;8.90;99.90
28773;DHT22;15925;51.222;5.678;2024-01-25T00:23:09;9.00;99.90
28773;DHT22;15925;51.222;5.678;2024-01-25T00:25:34;8.90;99.90
28773;DHT22;15925;51.222;5.678;2024-01-25T00:28:00;8.90;99.90
28773;DHT22;15925;51.222;5.678;2024-01-25T00:30:26;8.90;99.90
28773;DHT22;15925;51.222;5.678;2024-01-25T00:32:52;8.90;99.90
28773;DHT22;15925;51.222;5.678;2024-01-25T00:35:18;8.80;99.90
28773;DHT22;15925;51.222;5.678;2024-01-25T00:37:44;8.80;99.90
28773;DHT22;15925;51.222;5.678;2024-01-25T00:40:10;8.90;99.90
28773;DHT22;15925;51.222;5.678;2024-01-25T00:42:43;8.90;99.90
28773;DHT22;15925;51.222;5.678;2024-01-25T00:45:11;8.90;99.90
28773;DHT22;15925;51.222;5.678;2024-01-25T00:47:37;8.90;99.90
28773;DHT22;15925;51.222;5.678;2024-01-25T00:50:04;8.80;99.90
28773;DHT22;15925;51.222;5.678;2024-01-25T00:52:30;8.80;99.90
28773;DHT22;15925;51.222;5.678;2024-01-25T00:54:56;8.80;99.90
28773;DHT22;15925;51.222;5.678;2024-01-25T00:57:22;8.80;99.90
28773;DHT22;15925;51.222;5.678;2024-01-25T00:59:48;8.70;99.90
28773;DHT22;15925;51.222;5.678;2024-01-25T01:02:14;8.80;99.90
28773;DHT22;15925;51.222;5.678;2024-01-25T01:04:41;8.90;99.90
28773;DHT22;15925;51.222;5.678;2024-01-25T01:07:08;8.90;99.90
28773;DHT22;15925;51.222;5.678;2024-01-25T01:09:35;8.90;99.90
28773;DHT22;15925;51.222;5.678;2024-01-25T01:12:00;8.90;99.90
28773;DHT22;15925;51.222;5.678;2024-01-25T01:14:26;8.90;99.90
28773;DHT22;15925;51.222;5.678;2024-01-25T01:16:52;8.90;99.90
28773;DHT22;15925;51.222;5.678;2024-01-25T01:19:18;8.90;99.90
28773;DHT22;15925;51.222;5.678;2024-01-25T01:21:44;8.90;99.90
28773;DHT22;15925;51.222;5.678;2024-01-25T01:24:10;8.80;99.90
28773;DHT22;15925;51.222;5.678;2024-01-25T01:26:37;8.80;99.90
28773;DHT22;15925;51.222;5.678;2024-01-25T01:29:03;8.80;99.90
28773;DHT22;15925;51.222;5.678;2024-01-25T01:31:29;8.80;99.90
28773;DHT22;15925;51.222;5.678;2024-01-25T01:33:55;8.80;99.90
28773;DHT22;15925;51.222;5.678;2024-01-25T01:36:21;8.70;99.90
28773;DHT22;15925;51.222;5.678;2024-01-25T01:38:47;8.70;99.90
28773;DHT22;15925;51.222;5.678;2024-01-25T01:41:13;8.70;99.90
28773;DHT22;15925;51.222;5.678;2024-01-25T01:43:39;8.70;99.90
28773;DHT22;15925;51.222;5.678;2024-01-25T01:46:11;8.70;99.90
28773;DHT22;15925;51.222;5.678;2024-01-25T01:48:39;8.60;99.90
28773;DHT22;15925;51.222;5.678;2024-01-25T01:51:05;8.60;99.90
28773;DHT22;15925;51.222;5.678;2024-01-25T01:53:32;8.50;99.90
28773;DHT22;15925;51.222;5.678;2024-01-25T01:55:59;8.50;99.90
28773;DHT22;15925;51.222;5.678;2024-01-25T01:58:25;8.50;99.90
28773;DHT22;15925;51.222;5.678;2024-01-25T02:00:53;8.50;99.90
28773;DHT22;15925;51.222;5.678;2024-01-25T02:03:19;8.50;99.90
28773;DHT22;15925;51.222;5.678;2024-01-25T02:05:45;8.50;99.90
28773;DHT22;15925;51.222;5.678;2024-01-25T02:08:12;8.50;99.90
28773;DHT22;15925;51.222;5.678;2024-01-25T02:10:38;8.40;99.90
28773;DHT22;15925;51.222;5.678;2024-01-25T02:13:04;8.30;99.90
28773;DHT22;15925;51.222;5.678;2024-01-25T02:15:30;8.40;99.90
28773;DHT22;15925;51.222;5.678;2024-01-25T02:17:56;8.30;99.90
28773;DHT22;15925;51.222;5.678;2024-01-25T02:20:21;8.30;99.90
28773;DHT22;15925;51.222;5.678;2024-01-25T02:22:47;8.20;99.90
28773;DHT22;15925;51.222;5.678;2024-01-25T02:25:13;8.20;99.90
28773;DHT22;15925;51.222;5.678;2024-01-25T02:27:39;8.20;99.90
28773;DHT22;15925;51.222;5.678;2024-01-25T02:30:05;8.10;99.90
28773;DHT22;15925;51.222;5.678;2024-01-25T02:32:32;8.10;99.90
28773;DHT22;15925;51.222;5.678;2024-01-25T02:34:58;8.10;99.90
28773;DHT22;15925;51.222;5.678;2024-01-25T02:37:24;8.00;99.90
28773;DHT22;15925;51.222;5.678;2024-01-25T02:39:50;8.00;99.90
28773;DHT22;15925;51.222;5.678;2024-01-25T02:42:16;8.00;99.90
28773;DHT22;15925;51.222;5.678;2024-01-25T02:44:43;7.80;99.90
28773;DHT22;15925;51.222;5.678;2024-01-25T02:47:09;7.80;99.90
28773;DHT22;15925;51.222;5.678;2024-01-25T02:49:35;7.80;99.90
28773;DHT22;15925;51.222;5.678;2024-01-25T02:52:01;7.80;99.90
28773;DHT22;15925;51.222;5.678;2024-01-25T02:54:27;7.80;99.90
28773;DHT22;15925;51.222;5.678;2024-01-25T02:56:53;7.80;99.90
28773;DHT22;15925;51.222;5.678;2024-01-25T02:59:18;7.70;99.90
28773;DHT22;15925;51.222;5.678;2024-01-25T03:01:44;7.70;99.90
28773;DHT22;15925;51.222;5.678;2024-01-25T03:04:11;7.60;99.90
28773;DHT22;15925;51.222;5.678;2024-01-25T03:06:37;7.50;99.90
28773;DHT22;15925;51.222;5.678;2024-01-25T03:09:03;7.50;99.90
28773;DHT22;15925;51.222;5.678;2024-01-25T03:11:31;7.50;99.90
28773;DHT22;15925;51.222;5.678;2024-01-25T03:13:57;7.50;99.90
28773;DHT22;15925;51.222;5.678;2024-01-25T03:16:23;7.60;99.90
28773;DHT22;15925;51.222;5.678;2024-01-25T03:18:48;7.60;99.90
28773;DHT22;15925;51.222;5.678;2024-01-25T03:21:14;7.50;99.90
28773;DHT22;15925;51.222;5.678;2024-01-25T03:23:40;7.50;99.90
28773;DHT22;15925;51.222;5.678;2024-01-25T03:26:06;7.50;99.90
28773;DHT22;15925;51.222;5.678;2024-01-25T03:28:33;7.50;99.90
28773;DHT22;15925;51.222;5.678;2024-01-25T03:30:59;7.50;99.90
28773;DHT22;15925;51.222;5.678;2024-01-25T03:33:25;7.50;99.90
28773;DHT22;15925;51.222;5.678;2024-01-25T03:35:53;7.50;99.90
28773;DHT22;15925;51.222;5.678;2024-01-25T03:38:19;7.50;99.90
28773;DHT22;15925;51.222;5.678;2024-01-25T03:40:45;7.40;99.90
28773;DHT22;15925;51.222;5.678;2024-01-25T03:43:11;7.40;99.90
28773;DHT22;15925;51.222;5.678;2024-01-25T03:45:37;7.40;99.90
28773;DHT22;15925;51.222;5.678;2024-01-25T03:48:02;7.40;99.90
28773;DHT22;15925;51.222;5.678;2024-01-25T03:50:28;7.40;99.90
28773;DHT22;15925;51.222;5.678;2024-01-25T03:52:54;7.40;99.90
28773;DHT22;15925;51.222;5.678;2024-01-25T03:55:20;7.40;99.90
28773;DHT22;15925;51.222;5.678;2024-01-25T03:57:46;7.40;99.90
28773;DHT22;15925;51.222;5.678;2024-01-25T04:00:12;7.30;99.90
28773;DHT22;15925;51.222;5.678;2024-01-25T04:02:38;7.30;99.90
28773;DHT22;15925;51.222;5.678;2024-01-25T04:05:04;7.20;99.90
28773;DHT22;15925;51.222;5.678;2024-01-25T04:07:30;7.10;99.90
28773;DHT22;15925;51.222;5.678;2024-01-25T04:09:56;7.10;99.90
28773;DHT22;15925;51.222;5.678;2024-01-25T04:12:21;7.10;99.90
28773;DHT22;15925;51.222;5.678;2024-01-25T04:14:47;7.10;99.90
28773;DHT22;15925;51.222;5.678;2024-01-25T04:17:13;7.00;99.90
28773;DHT22;15925;51.222;5.678;2024-01-25T04:19:38;7.00;99.90
28773;DHT22;15925;51.222;5.678;2024-01-25T04:22:04;6.90;99.90
28773;DHT22;15925;51.222;5.678;2024-01-25T04:24:30;6.90;99.90
28773;DHT22;15925;51.222;5.678;2024-01-25T04:26:56;6.80;99.90
28773;DHT22;15925;51.222;5.678;2024-01-25T04:29:22;6.80;99.90
28773;DHT22;15925;51.222;5.678;2024-01-25T04:31:48;6.80;99.90
28773;DHT22;15925;51.222;5.678;2024-01-25T04:34:16;6.70;99.90
28773;DHT22;15925;51.222;5.678;2024-01-25T04:36:42;6.70;99.90
28773;DHT22;15925;51.222;5.678;2024-01-25T04:39:08;6.70;99.90
28773;DHT22;15925;51.222;5.678;2024-01-25T04:41:34;6.70;99.90
28773;DHT22;15925;51.222;5.678;2024-01-25T04:43:59;6.70;99.90
28773;DHT22;15925;51.222;5.678;2024-01-25T04:46:25;6.70;99.90
28773;DHT22;15925;51.222;5.678;2024-01-25T04:48:52;6.60;99.90
28773;DHT22;15925;51.222;5.678;2024-01-25T04:51:18;6.60;99.90
28773;DHT22;15925;51.222;5.678;2024-01-25T04:53:45;6.60;99.90
28773;DHT22;15925;51.222;5.678;2024-01-25T04:56:11;6.60;99.90
28773;DHT22;15925;51.222;5.678;2024-01-25T04:58:37;6.50;99.90
28773;DHT22;15925;51.222;5.678;2024-01-25T05:01:03;6.50;99.90
28773;DHT22;15925;51.222;5.678;2024-01-25T05:03:29;6.50;99.90
28773;DHT22;15925;51.222;5.678;2024-01-25T05:05:56;6.50;99.90
28773;DHT22;15925;51.222;5.678;2024-01-25T05:08:21;6.50;99.90
28773;DHT22;15925;51.222;5.678;2024-01-25T05:10:47;6.50;99.90
28773;DHT22;15925;51.222;5.678;2024-01-25T05:13:13;6.50;99.90
28773;DHT22;15925;51.222;5.678;2024-01-25T05:15:39;6.50;99.90
28773;DHT22;15925;51.222;5.678;2024-01-25T05:18:05;6.40;99.90
28773;DHT22;15925;51.222;5.678;2024-01-25T05:20:31;6.40;99.90
28773;DHT22;15925;51.222;5.678;2024-01-25T05:22:59;6.40;99.90
28773;DHT22;15925;51.222;5.678;2024-01-25T05:25:25;6.40;99.90
28773;DHT22;15925;51.222;5.678;2024-01-25T05:27:52;6.40;99.90
28773;DHT22;15925;51.222;5.678;2024-01-25T05:30:18;6.30;99.90
28773;DHT22;15925;51.222;5.678;2024-01-25T05:32:44;6.30;99.90
28773;DHT22;15925;51.222;5.678;2024-01-25T05:35:11;6.30;99.90
28773;DHT22;15925;51.222;5.678;2024-01-25T05:37:37;6.20;99.90
28773;DHT22;15925;51.222;5.678;2024-01-25T05:40:03;6.20;99.90
28773;DHT22;15925;51.222;5.678;2024-01-25T05:42:29;6.20;99.90
28773;DHT22;15925;51.222;5.678;2024-01-25T05:44:55;6.20;99.90
28773;DHT22;15925;51.222;5.678;2024-01-25T05:47:21;6.20;99.90
28773;DHT22;15925;51.222;5.678;2024-01-25T05:49:47;6.20;99.90
28773;DHT22;15925;51.222;5.678;2024-01-25T05:52:12;6.20;99.90
28773;DHT22;15925;51.222;5.678;2024-01-25T05:54:38;6.20;99.90
28773;DHT22;15925;51.222;5.678;2024-01-25T05:57:04;6.20;99.90
28773;DHT22;15925;51.222;5.678;2024-01-25T05:59:30;6.20;99.90
28773;DHT22;15925;51.222;5.678;2024-01-25T06:01:56;6.10;99.90
28773;DHT22;15925;51.222;5.678;2024-01-25T06:04:21;6.10;99.90
28773;DHT22;15925;51.222;5.678;2024-01-25T06:06:47;6.10;99.90
28773;DHT22;15925;51.222;5.678;2024-01-25T06:09:13;6.10;99.90
28773;DHT22;15925;51.222;5.678;2024-01-25T06:11:41;6.00;99.90
28773;DHT22;15925;51.222;5.678;2024-01-25T06:14:07;6.00;99.90
28773;DHT22;15925;51.222;5.678;2024-01-25T06:16:33;6.00;99.90
28773;DHT22;15925;51.222;5.678;2024-01-25T06:18:59;6.00;99.90
28773;DHT22;15925;51.222;5.678;2024-01-25T06:21:25;5.90;99.90
28773;DHT22;15925;51.222;5.678;2024-01-25T06:23:51;5.90;99.90
28773;DHT22;15925;51.222;5.678;2024-01-25T06:26:17;5.90;99.90
28773;DHT22;15925;51.222;5.678;2024-01-25T06:28:43;5.90;99.90
28773;DHT22;15925;51.222;5.678;2024-01-25T06:31:08;5.90;99.90
28773;DHT22;15925;51.222;5.678;2024-01-25T06:33:34;5.80;99.90
28773;DHT22;15925;51.222;5.678;2024-01-25T06:36:00;5.80;99.90
28773;DHT22;15925;51.222;5.678;2024-01-25T06:38:25;5.80;99.90
28773;DHT22;15925;51.222;5.678;2024-01-25T06:40:51;5.80;99.90
28773;DHT22;15925;51.222;5.678;2024-01-25T06:43:17;5.70;99.90
28773;DHT22;15925;51.222;5.678;2024-01-25T06:45:43;5.80;99.90
28773;DHT22;15925;51.222;5.678;2024-01-25T06:48:09;5.70;99.90
28773;DHT22;15925;51.222;5.678;2024-01-25T06:50:35;5.70;99.90
28773;DHT22;15925;51.222;5.678;2024-01-25T06:53:00;5.70;99.90
28773;DHT22;15925;51.222;5.678;2024-01-25T06:55:26;5.70;99.90
28773;DHT22;15925;51.222;5.678;2024-01-25T06:57:52;5.70;99.90
28773;DHT22;15925;51.222;5.678;2024-01-25T07:00:18;5.70;99.90
28773;DHT22;15925;51.222;5.678;2024-01-25T07:02:46;5.70;99.90
28773;DHT22;15925;51.222;5.678;2024-01-25T07:05:12;5.70;99.90
28773;DHT22;15925;51.222;5.678;2024-01-25T07:07:38;5.70;99.90
28773;DHT22;15925;51.222;5.678;2024-01-25T07:10:08;5.70;99.90
28773;DHT22;15925;51.222;5.678;2024-01-25T07:12:34;5.70;99.90
28773;DHT22;15925;51.222;5.678;2024-01-25T07:15:00;5.70;99.90
28773;DHT22;15925;51.222;5.678;2024-01-25T07:17:25;5.60;99.90
28773;DHT22;15925;51.222;5.678;2024-01-25T07:19:51;5.60;99.90
28773;DHT22;15925;51.222;5.678;2024-01-25T07:22:17;5.70;99.90
28773;DHT22;15925;51.222;5.678;2024-01-25T07:24:44;5.60;99.90
28773;DHT22;15925;51.222;5.678;2024-01-25T07:27:10;5.70;99.90
28773;DHT22;15925;51.222;5.678;2024-01-25T07:29:36;5.70;99.90
28773;DHT22;15925;51.222;5.678;2024-01-25T07:32:03;5.70;99.90
28773;DHT22;15925;51.222;5.678;2024-01-25T07:34:28;5.70;99.90
28773;DHT22;15925;51.222;5.678;2024-01-25T07:36:54;5.70;99.90
28773;DHT22;15925;51.222;5.678;2024-01-25T07:39:20;5.70;99.90
28773;DHT22;15925;51.222;5.678;2024-01-25T07:41:46;5.70;99.90
28773;DHT22;15925;51.222;5.678;2024-01-25T07:44:12;5.70;99.90
28773;DHT22;15925;51.222;5.678;2024-01-25T07:46:39;5.60;99.90
28773;DHT22;15925;51.222;5.678;2024-01-25T07:49:05;5.50;99.90
28773;DHT22;15925;51.222;5.678;2024-01-25T07:51:30;5.60;99.90
28773;DHT22;15925;51.222;5.678;2024-01-25T07:53:56;5.70;99.90
28773;DHT22;15925;51.222;5.678;2024-01-25T07:56:22;5.70;99.90
28773;DHT22;15925;51.222;5.678;2024-01-25T07:58:51;5.80;99.90
28773;DHT22;15925;51.222;5.678;2024-01-25T08:01:20;5.80;99.90
28773;DHT22;15925;51.222;5.678;2024-01-25T08:03:47;5.90;99.90
28773;DHT22;15925;51.222;5.678;2024-01-25T08:06:13;6.00;99.90
28773;DHT22;15925;51.222;5.678;2024-01-25T08:08:39;6.00;99.90
28773;DHT22;15925;51.222;5.678;2024-01-25T08:11:05;6.00;99.90
28773;DHT22;15925;51.222;5.678;2024-01-25T08:13:31;6.00;99.90
28773;DHT22;15925;51.222;5.678;2024-01-25T08:15:57;6.10;99.90
28773;DHT22;15925;51.222;5.678;2024-01-25T08:18:23;6.10;99.90
28773;DHT22;15925;51.222;5.678;2024-01-25T08:20:49;6.10;99.90
28773;DHT22;15925;51.222;5.678;2024-01-25T08:23:16;6.10;99.90
28773;DHT22;15925;51.222;5.678;2024-01-25T08:25:42;6.00;99.90
28773;DHT22;15925;51.222;5.678;2024-01-25T08:28:08;6.10;99.90
28773;DHT22;15925;51.222;5.678;2024-01-25T08:30:34;6.10;99.90
28773;DHT22;15925;51.222;5.678;2024-01-25T08:32:59;6.10;99.90
28773;DHT22;15925;51.222;5.678;2024-01-25T08:35:25;6.20;99.90
28773;DHT22;15925;51.222;5.678;2024-01-25T08:37:51;6.30;99.90
28773;DHT22;15925;51.222;5.678;2024-01-25T08:40:17;6.30;99.90
28773;DHT22;15925;51.222;5.678;2024-01-25T08:42:43;6.40;99.90
28773;DHT22;15925;51.222;5.678;2024-01-25T08:45:09;6.40;99.90
28773;DHT22;15925;51.222;5.678;2024-01-25T08:47:35;6.40;99.90
28773;DHT22;15925;51.222;5.678;2024-01-25T08:50:01;6.50;99.90
28773;DHT22;15925;51.222;5.678;2024-01-25T08:52:27;6.50;99.90
28773;DHT22;15925;51.222;5.678;2024-01-25T08:54:53;6.50;99.90
28773;DHT22;15925;51.222;5.678;2024-01-25T08:57:19;6.50;99.90
28773;DHT22;15925;51.222;5.678;2024-01-25T08:59:44;6.60;99.90
28773;DHT22;15925;51.222;5.678;2024-01-25T09:02:10;6.60;99.90
28773;DHT22;15925;51.222;5.678;2024-01-25T09:04:36;6.70;99.90
28773;DHT22;15925;51.222;5.678;2024-01-25T09:07:03;6.70;99.90
28773;DHT22;15925;51.222;5.678;2024-01-25T09:09:28;6.80;99.90
28773;DHT22;15925;51.222;5.678;2024-01-25T09:11:54;6.70;99.90
28773;DHT22;15925;51.222;5.678;2024-01-25T09:14:20;6.80;99.90
28773;DHT22;15925;51.222;5.678;2024-01-25T09:16:47;6.80;99.90
28773;DHT22;15925;51.222;5.678;2024-01-25T09:19:13;6.90;99.90
28773;DHT22;15925;51.222;5.678;2024-01-25T09:21:39;6.90;99.90
28773;DHT22;15925;51.222;5.678;2024-01-25T09:24:05;7.00;99.90
28773;DHT22;15925;51.222;5.678;2024-01-25T09:26:32;7.00;99.90
28773;DHT22;15925;51.222;5.678;2024-01-25T09:28:57;7.00;99.90
28773;DHT22;15925;51.222;5.678;2024-01-25T09:31:23;7.10;99.90
28773;DHT22;15925;51.222;5.678;2024-01-25T09:33:49;7.10;99.90
28773;DHT22;15925;51.222;5.678;2024-01-25T09:36:17;7.10;99.90
28773;DHT22;15925;51.222;5.678;2024-01-25T09:38:43;7.20;99.90
28773;DHT22;15925;51.222;5.678;2024-01-25T09:41:09;7.20;99.90
28773;DHT22;15925;51.222;5.678;2024-01-25T09:43:36;7.30;99.90
28773;DHT22;15925;51.222;5.678;2024-01-25T09:46:02;7.30;99.90
28773;DHT22;15925;51.222;5.678;2024-01-25T09:48:28;7.30;99.90
28773;DHT22;15925;51.222;5.678;2024-01-25T09:50:55;7.30;99.90
28773;DHT22;15925;51.222;5.678;2024-01-25T09:53:22;7.40;99.90
28773;DHT22;15925;51.222;5.678;2024-01-25T09:56:00;7.40;99.90
28773;DHT22;15925;51.222;5.678;2024-01-25T09:58:34;7.50;99.90
28773;DHT22;15925;51.222;5.678;2024-01-25T10:01:01;7.50;99.90
28773;DHT22;15925;51.222;5.678;2024-01-25T10:03:27;7.50;99.90
28773;DHT22;15925;51.222;5.678;2024-01-25T10:05:53;7.50;99.90
28773;DHT22;15925;51.222;5.678;2024-01-25T10:08:19;7.60;99.90
28773;DHT22;15925;51.222;5.678;2024-01-25T10:10:49;7.60;99.90
28773;DHT22;15925;51.222;5.678;2024-01-25T10:13:15;7.70;99.90
28773;DHT22;15925;51.222;5.678;2024-01-25T10:15:40;7.70;99.90
28773;DHT22;15925;51.222;5.678;2024-01-25T10:18:07;7.70;99.90
28773;DHT22;15925;51.222;5.678;2024-01-25T10:20:47;7.70;99.90
28773;DHT22;15925;51.222;5.678;2024-01-25T10:23:13;7.70;99.90
28773;DHT22;15925;51.222;5.678;2024-01-25T10:25:39;7.70;99.90
28773;DHT22;15925;51.222;5.678;2024-01-25T10:28:08;7.80;99.90
28773;DHT22;15925;51.222;5.678;2024-01-25T10:30:35;7.80;99.90
28773;DHT22;15925;51.222;5.678;2024-01-25T10:33:02;7.80;99.90
28773;DHT22;15925;51.222;5.678;2024-01-25T10:35:28;7.90;99.90
28773;DHT22;15925;51.222;5.678;2024-01-25T10:37:54;7.90;99.90
28773;DHT22;15925;51.222;5.678;2024-01-25T10:40:21;7.90;99.90
28773;DHT22;15925;51.222;5.678;2024-01-25T10:42:48;8.00;99.90
28773;DHT22;15925;51.222;5.678;2024-01-25T10:45:14;8.00;99.90
28773;DHT22;15925;51.222;5.678;2024-01-25T10:47:40;8.00;99.90
28773;DHT22;15925;51.222;5.678;2024-01-25T10:50:07;8.10;99.90
28773;DHT22;15925;51.222;5.678;2024-01-25T10:52:37;8.10;99.90
28773;DHT22;15925;51.222;5.678;2024-01-25T10:55:05;8.10;99.90
28773;DHT22;15925;51.222;5.678;2024-01-25T10:57:37;8.20;99.90
28773;DHT22;15925;51.222;5.678;2024-01-25T11:00:08;8.20;99.90
28773;DHT22;15925;51.222;5.678;2024-01-25T11:02:35;8.20;99.90
28773;DHT22;15925;51.222;5.678;2024-01-25T11:05:01;8.20;99.90
28773;DHT22;15925;51.222;5.678;2024-01-25T11:07:28;8.30;99.90
28773;DHT22;15925;51.222;5.678;2024-01-25T11:09:55;8.30;99.90
28773;DHT22;15925;51.222;5.678;2024-01-25T11:12:21;8.30;99.90
28773;DHT22;15925;51.222;5.678;2024-01-25T11:14:54;8.40;99.90
28773;DHT22;15925;51.222;5.678;2024-01-25T11:17:21;8.40;99.90
28773;DHT22;15925;51.222;5.678;2024-01-25T11:19:50;8.40;99.90
28773;DHT22;15925;51.222;5.678;2024-01-25T11:22:16;8.40;99.90
28773;DHT22;15925;51.222;5.678;2024-01-25T11:24:43;8.40;99.90
28773;DHT22;15925;51.222;5.678;2024-01-25T11:27:10;8.40;99.90
28773;DHT22;15925;51.222;5.678;2024-01-25T11:29:39;8.50;99.90
28773;DHT22;15925;51.222;5.678;2024-01-25T11:32:05;8.50;99.90
28773;DHT22;15925;51.222;5.678;2024-01-25T11:34:31;8.60;99.90
28773;DHT22;15925;51.222;5.678;2024-01-25T11:36:57;8.60;99.90
28773;DHT22;15925;51.222;5.678;2024-01-25T11:39:23;8.60;99.90
28773;DHT22;15925;51.222;5.678;2024-01-25T11:41:51;8.70;99.90
28773;DHT22;15925;51.222;5.678;2024-01-25T11:44:17;8.70;99.90
28773;DHT22;15925;51.222;5.678;2024-01-25T11:46:43;8.70;99.90
28773;DHT22;15925;51.222;5.678;2024-01-25T11:49:09;8.80;99.90
28773;DHT22;15925;51.222;5.678;2024-01-25T11:51:35;8.80;99.90
28773;DHT22;15925;51.222;5.678;2024-01-25T11:54:01;8.80;99.90
28773;DHT22;15925;51.222;5.678;2024-01-25T11:56:29;8.90;99.90
28773;DHT22;15925;51.222;5.678;2024-01-25T11:58:56;9.00;99.90
28773;DHT22;15925;51.222;5.678;2024-01-25T12:01:26;9.00;99.90
28773;DHT22;15925;51.222;5.678;2024-01-25T12:03:53;9.00;99.90
28773;DHT22;15925;51.222;5.678;2024-01-25T12:06:19;9.00;99.90
28773;DHT22;15925;51.222;5.678;2024-01-25T12:08:45;9.10;99.90
28773;DHT22;15925;51.222;5.678;2024-01-25T12:11:13;9.10;99.90
28773;DHT22;15925;51.222;5.678;2024-01-25T12:13:42;9.20;99.90
28773;DHT22;15925;51.222;5.678;2024-01-25T12:16:09;9.20;99.90
28773;DHT22;15925;51.222;5.678;2024-01-25T12:18:37;9.20;99.90
28773;DHT22;15925;51.222;5.678;2024-01-25T12:21:03;9.20;99.90
28773;DHT22;15925;51.222;5.678;2024-01-25T12:23:36;9.30;99.90
28773;DHT22;15925;51.222;5.678;2024-01-25T12:26:04;9.30;99.90
28773;DHT22;15925;51.222;5.678;2024-01-25T12:28:30;9.30;99.90
28773;DHT22;15925;51.222;5.678;2024-01-25T12:31:01;9.40;99.90
28773;DHT22;15925;51.222;5.678;2024-01-25T12:33:29;9.40;99.90
28773;DHT22;15925;51.222;5.678;2024-01-25T12:35:55;9.50;99.90
28773;DHT22;15925;51.222;5.678;2024-01-25T12:38:21;9.50;99.90
28773;DHT22;15925;51.222;5.678;2024-01-25T12:40:49;9.50;99.90
28773;DHT22;15925;51.222;5.678;2024-01-25T12:43:15;9.60;99.90
28773;DHT22;15925;51.222;5.678;2024-01-25T12:45:41;9.60;99.90
28773;DHT22;15925;51.222;5.678;2024-01-25T12:48:07;9.60;99.90
28773;DHT22;15925;51.222;5.678;2024-01-25T12:50:34;9.60;99.90
28773;DHT22;15925;51.222;5.678;2024-01-25T12:53:00;9.60;99.90
28773;DHT22;15925;51.222;5.678;2024-01-25T12:55:30;9.60;99.90
28773;DHT22;15925;51.222;5.678;2024-01-25T12:57:57;9.70;99.90
28773;DHT22;15925;51.222;5.678;2024-01-25T13:00:22;9.70;99.90
28773;DHT22;15925;51.222;5.678;2024-01-25T13:02:48;9.70;99.90
28773;DHT22;15925;51.222;5.678;2024-01-25T13:05:15;9.70;99.90
28773;DHT22;15925;51.222;5.678;2024-01-25T13:07:41;9.70;99.90
28773;DHT22;15925;51.222;5.678;2024-01-25T13:10:08;9.70;99.90
28773;DHT22;15925;51.222;5.678;2024-01-25T13:12:34;9.70;99.90
28773;DHT22;15925;51.222;5.678;2024-01-25T13:15:00;9.80;99.90
28773;DHT22;15925;51.222;5.678;2024-01-25T13:17:26;9.80;99.90
28773;DHT22;15925;51.222;5.678;2024-01-25T13:19:53;9.80;99.90
28773;DHT22;15925;51.222;5.678;2024-01-25T13:22:19;9.80;99.90
28773;DHT22;15925;51.222;5.678;2024-01-25T13:24:47;9.80;99.90
28773;DHT22;15925;51.222;5.678;2024-01-25T13:27:12;9.80;99.90
28773;DHT22;15925;51.222;5.678;2024-01-25T13:29:38;9.90;99.90
28773;DHT22;15925;51.222;5.678;2024-01-25T13:32:04;9.90;99.90
28773;DHT22;15925;51.222;5.678;2024-01-25T13:34:30;9.90;99.90
28773;DHT22;15925;51.222;5.678;2024-01-25T13:36:56;9.90;99.90
28773;DHT22;15925;51.222;5.678;2024-01-25T13:39:21;9.90;99.90
28773;DHT22;15925;51.222;5.678;2024-01-25T13:41:47;10.00;99.90
28773;DHT22;15925;51.222;5.678;2024-01-25T13:44:14;10.00;99.90
28773;DHT22;15925;51.222;5.678;2024-01-25T13:46:40;9.90;99.90
28773;DHT22;15925;51.222;5.678;2024-01-25T13:49:05;10.00;99.90
28773;DHT22;15925;51.222;5.678;2024-01-25T13:51:31;10.00;99.90
28773;DHT22;15925;51.222;5.678;2024-01-25T13:53:57;10.00;99.90
28773;DHT22;15925;51.222;5.678;2024-01-25T13:56:23;10.00;99.90
28773;DHT22;15925;51.222;5.678;2024-01-25T13:58:49;10.10;99.90
28773;DHT22;15925;51.222;5.678;2024-01-25T14:01:15;10.10;99.90
28773;DHT22;15925;51.222;5.678;2024-01-25T14:03:40;10.10;99.90
28773;DHT22;15925;51.222;5.678;2024-01-25T14:06:06;10.10;99.90
28773;DHT22;15925;51.222;5.678;2024-01-25T14:08:35;10.10;99.90
28773;DHT22;15925;51.222;5.678;2024-01-25T14:11:02;10.10;99.90
28773;DHT22;15925;51.222;5.678;2024-01-25T14:13:28;10.10;99.90
28773;DHT22;15925;51.222;5.678;2024-01-25T14:15:54;10.10;99.90
28773;DHT22;15925;51.222;5.678;2024-01-25T14:18:20;10.10;99.90
28773;DHT22;15925;51.222;5.678;2024-01-25T14:20:46;10.20;99.90
28773;DHT22;15925;51.222;5.678;2024-01-25T14:23:12;10.20;99.90
28773;DHT22;15925;51.222;5.678;2024-01-25T14:25:37;10.30;99.90
28773;DHT22;15925;51.222;5.678;2024-01-25T14:28:03;10.30;99.90
28773;DHT22;15925;51.222;5.678;2024-01-25T14:30:29;10.30;99.90
28773;DHT22;15925;51.222;5.678;2024-01-25T14:32:55;10.30;99.90
28773;DHT22;15925;51.222;5.678;2024-01-25T14:35:24;10.20;99.90
28773;DHT22;15925;51.222;5.678;2024-01-25T14:37:54;10.20;99.90
28773;DHT22;15925;51.222;5.678;2024-01-25T14:40:21;10.30;99.90
28773;DHT22;15925;51.222;5.678;2024-01-25T14:42:47;10.30;99.90
28773;DHT22;15925;51.222;5.678;2024-01-25T14:45:13;10.20;99.90
28773;DHT22;15925;51.222;5.678;2024-01-25T14:47:39;10.30;99.90
28773;DHT22;15925;51.222;5.678;2024-01-25T14:50:05;10.30;99.90
28773;DHT22;15925;51.222;5.678;2024-01-25T14:52:31;10.30;99.90
28773;DHT22;15925;51.222;5.678;2024-01-25T14:55:02;10.20;99.90
28773;DHT22;15925;51.222;5.678;2024-01-25T14:57:28;10.30;99.90
28773;DHT22;15925;51.222;5.678;2024-01-25T14:59:53;10.20;99.90
28773;DHT22;15925;51.222;5.678;2024-01-25T15:02:19;10.20;99.90
28773;DHT22;15925;51.222;5.678;2024-01-25T15:04:45;10.20;99.90
28773;DHT22;15925;51.222;5.678;2024-01-25T15:07:10;10.20;99.90
28773;DHT22;15925;51.222;5.678;2024-01-25T15:09:36;10.20;99.90
28773;DHT22;15925;51.222;5.678;2024-01-25T15:12:01;10.20;99.90
28773;DHT22;15925;51.222;5.678;2024-01-25T15:14:27;10.20;99.90
28773;DHT22;15925;51.222;5.678;2024-01-25T15:16:53;10.20;99.90
28773;DHT22;15925;51.222;5.678;2024-01-25T15:19:19;10.20;99.90
28773;DHT22;15925;51.222;5.678;2024-01-25T15:21:45;10.20;99.90
28773;DHT22;15925;51.222;5.678;2024-01-25T15:24:11;10.20;99.90
28773;DHT22;15925;51.222;5.678;2024-01-25T15:26:40;10.10;99.90
28773;DHT22;15925;51.222;5.678;2024-01-25T15:29:05;10.20;99.90
28773;DHT22;15925;51.222;5.678;2024-01-25T15:31:31;10.10;99.90
28773;DHT22;15925;51.222;5.678;2024-01-25T15:33:57;10.10;99.90
28773;DHT22;15925;51.222;5.678;2024-01-25T15:36:22;10.10;99.90
28773;DHT22;15925;51.222;5.678;2024-01-25T15:38:48;10.10;99.90